sensor_id;sensor_type;location;lat;lon;timestamp;temperature;humidity
5055;DHT22;13829;48.990;8.346;2022-12-18T00:02:25;-6.80;99.90
5055;DHT22;13829;48.990;8.346;2022-12-18T00:04:52;-6.80;99.90
5055;DHT22;13829;48.990;8.346;2022-12-18T00:07:20;-6.90;99.90
5055;DHT22;13829;48.990;8.346;2022-12-18T00:09:47;-6.90;99.90
5055;DHT22;13829;48.990;8.346;2022-12-18T00:12:14;-7.00;99.90
5055;DHT22;13829;48.990;8.346;2022-12-18T00:14:41;-6.90;99.90
5055;DHT22;13829;48.990;8.346;2022-12-18T00:17:08;-6.90;99.90
5055;DHT22;13829;48.990;8.346;2022-12-18T00:19:35;-7.00;99.90
5055;DHT22;13829;48.990;8.346;2022-12-18T00:22:02;-7.00;99.90
5055;DHT22;13829;48.990;8.346;2022-12-18T00:24:30;-7.00;99.90
5055;DHT22;13829;48.990;8.346;2022-12-18T00:26:57;-6.90;99.90
5055;DHT22;13829;48.990;8.346;2022-12-18T00:29:24;-6.90;99.90
5055;DHT22;13829;48.990;8.346;2022-12-18T00:31:51;-6.90;99.90
5055;DHT22;13829;48.990;8.346;2022-12-18T00:34:18;-6.90;99.90
5055;DHT22;13829;48.990;8.346;2022-12-18T00:36:47;-6.90;99.90
5055;DHT22;13829;48.990;8.346;2022-12-18T00:39:14;-7.00;99.90
5055;DHT22;13829;48.990;8.346;2022-12-18T00:41:43;-7.10;99.90
5055;DHT22;13829;48.990;8.346;2022-12-18T00:44:27;-7.20;99.90
5055;DHT22;13829;48.990;8.346;2022-12-18T00:46:54;-7.20;99.90
5055;DHT22;13829;48.990;8.346;2022-12-18T00:49:21;-7.10;99.90
5055;DHT22;13829;48.990;8.346;2022-12-18T00:51:48;-7.10;99.90
5055;DHT22;13829;48.990;8.346;2022-12-18T00:54:15;-7.00;99.90
5055;DHT22;13829;48.990;8.346;2022-12-18T00:56:44;-7.00;99.90
5055;DHT22;13829;48.990;8.346;2022-12-18T00:59:11;-7.00;99.90
5055;DHT22;13829;48.990;8.346;2022-12-18T01:01:38;-7.00;99.90
5055;DHT22;13829;48.990;8.346;2022-12-18T01:04:05;-7.00;99.90
5055;DHT22;13829;48.990;8.346;2022-12-18T01:06:32;-7.00;99.90
5055;DHT22;13829;48.990;8.346;2022-12-18T01:09:00;-7.00;99.90
5055;DHT22;13829;48.990;8.346;2022-12-18T01:11:26;-7.00;99.90
5055;DHT22;13829;48.990;8.346;2022-12-18T01:13:55;-7.10;99.90
5055;DHT22;13829;48.990;8.346;2022-12-18T01:16:22;-7.10;99.90
5055;DHT22;13829;48.990;8.346;2022-12-18T01:18:52;-7.00;99.90
5055;DHT22;13829;48.990;8.346;2022-12-18T01:21:20;-7.10;99.90
5055;DHT22;13829;48.990;8.346;2022-12-18T01:23:51;-7.10;99.90
5055;DHT22;13829;48.990;8.346;2022-12-18T01:26:20;-7.00;99.90
5055;DHT22;13829;48.990;8.346;2022-12-18T01:28:47;-6.90;99.90
5055;DHT22;13829;48.990;8.346;2022-12-18T01:31:18;-6.80;99.90
5055;DHT22;13829;48.990;8.346;2022-12-18T01:33:46;-6.80;99.90
5055;DHT22;13829;48.990;8.346;2022-12-18T01:36:18;-6.90;99.90
5055;DHT22;13829;48.990;8.346;2022-12-18T01:38:47;-6.80;99.90
5055;DHT22;13829;48.990;8.346;2022-12-18T01:41:15;-6.80;99.90
5055;DHT22;13829;48.990;8.346;2022-12-18T01:43:49;-6.80;99.90
5055;DHT22;13829;48.990;8.346;2022-12-18T01:46:21;-6.70;99.90
5055;DHT22;13829;48.990;8.346;2022-12-18T01:48:51;-6.80;99.90
5055;DHT22;13829;48.990;8.346;2022-12-18T01:51:20;-6.80;99.90
5055;DHT22;13829;48.990;8.346;2022-12-18T01:53:47;-6.80;99.90
5055;DHT22;13829;48.990;8.346;2022-12-18T01:56:18;-6.80;99.90
5055;DHT22;13829;48.990;8.346;2022-12-18T01:58:53;-6.80;99.90
5055;DHT22;13829;48.990;8.346;2022-12-18T02:01:26;-6.80;99.90
5055;DHT22;13829;48.990;8.346;2022-12-18T02:03:56;-6.70;99.90
5055;DHT22;13829;48.990;8.346;2022-12-18T02:06:41;-6.70;99.90
5055;DHT22;13829;48.990;8.346;2022-12-18T02:09:12;-6.80;99.90
5055;DHT22;13829;48.990;8.346;2022-12-18T02:11:48;-6.90;99.90
5055;DHT22;13829;48.990;8.346;2022-12-18T02:14:28;-7.00;99.90
5055;DHT22;13829;48.990;8.346;2022-12-18T02:17:06;-7.10;99.90
5055;DHT22;13829;48.990;8.346;2022-12-18T02:19:46;-7.10;99.90
5055;DHT22;13829;48.990;8.346;2022-12-18T02:22:29;-7.00;99.90
5055;DHT22;13829;48.990;8.346;2022-12-18T02:25:18;-7.00;99.90
5055;DHT22;13829;48.990;8.346;2022-12-18T02:27:58;-6.90;99.90
5055;DHT22;13829;48.990;8.346;2022-12-18T02:30:29;-6.80;99.90
5055;DHT22;13829;48.990;8.346;2022-12-18T02:33:01;-6.90;99.90
5055;DHT22;13829;48.990;8.346;2022-12-18T02:35:33;-7.00;99.90
5055;DHT22;13829;48.990;8.346;2022-12-18T02:38:02;-6.90;99.90
5055;DHT22;13829;48.990;8.346;2022-12-18T02:40:31;-6.80;99.90
5055;DHT22;13829;48.990;8.346;2022-12-18T02:43:07;-6.90;99.90
5055;DHT22;13829;48.990;8.346;2022-12-18T02:45:34;-6.90;99.90
5055;DHT22;13829;48.990;8.346;2022-12-18T02:48:01;-6.90;99.90
5055;DHT22;13829;48.990;8.346;2022-12-18T02:50:33;-6.80;99.90
5055;DHT22;13829;48.990;8.346;2022-12-18T02:53:10;-6.80;99.90
5055;DHT22;13829;48.990;8.346;2022-12-18T02:55:52;-6.70;99.90
5055;DHT22;13829;48.990;8.346;2022-12-18T02:58:32;-6.60;99.90
5055;DHT22;13829;48.990;8.346;2022-12-18T03:01:09;-6.60;99.90
5055;DHT22;13829;48.990;8.346;2022-12-18T03:03:42;-6.70;99.90
5055;DHT22;13829;48.990;8.346;2022-12-18T03:06:20;-6.70;99.90
5055;DHT22;13829;48.990;8.346;2022-12-18T03:08:56;-6.70;99.90
5055;DHT22;13829;48.990;8.346;2022-12-18T03:11:27;-6.70;99.90
5055;DHT22;13829;48.990;8.346;2022-12-18T03:14:17;-6.70;99.90
5055;DHT22;13829;48.990;8.346;2022-12-18T03:16:50;-6.70;99.90
5055;DHT22;13829;48.990;8.346;2022-12-18T03:19:24;-6.80;99.90
5055;DHT22;13829;48.990;8.346;2022-12-18T03:21:56;-6.90;99.90
5055;DHT22;13829;48.990;8.346;2022-12-18T03:24:27;-6.90;99.90
5055;DHT22;13829;48.990;8.346;2022-12-18T03:27:01;-7.00;99.90
5055;DHT22;13829;48.990;8.346;2022-12-18T03:29:36;-7.00;99.90
5055;DHT22;13829;48.990;8.346;2022-12-18T03:32:08;-7.10;99.90
5055;DHT22;13829;48.990;8.346;2022-12-18T03:34:40;-7.20;99.90
5055;DHT22;13829;48.990;8.346;2022-12-18T03:37:10;-7.30;99.90
5055;DHT22;13829;48.990;8.346;2022-12-18T03:39:37;-7.20;99.90
5055;DHT22;13829;48.990;8.346;2022-12-18T03:42:07;-7.20;99.90
5055;DHT22;13829;48.990;8.346;2022-12-18T03:44:49;-7.20;99.90
5055;DHT22;13829;48.990;8.346;2022-12-18T03:47:27;-7.30;99.90
5055;DHT22;13829;48.990;8.346;2022-12-18T03:49:59;-7.30;99.90
5055;DHT22;13829;48.990;8.346;2022-12-18T03:52:38;-7.40;99.90
5055;DHT22;13829;48.990;8.346;2022-12-18T03:55:12;-7.30;99.90
5055;DHT22;13829;48.990;8.346;2022-12-18T03:57:41;-7.30;99.90
5055;DHT22;13829;48.990;8.346;2022-12-18T04:00:14;-7.40;99.90
5055;DHT22;13829;48.990;8.346;2022-12-18T04:02:45;-7.40;99.90
5055;DHT22;13829;48.990;8.346;2022-12-18T04:05:22;-7.30;99.90
5055;DHT22;13829;48.990;8.346;2022-12-18T04:07:53;-7.40;99.90
5055;DHT22;13829;48.990;8.346;2022-12-18T04:10:21;-7.40;99.90
5055;DHT22;13829;48.990;8.346;2022-12-18T04:12:48;-7.50;99.90
5055;DHT22;13829;48.990;8.346;2022-12-18T04:15:17;-7.50;99.90
5055;DHT22;13829;48.990;8.346;2022-12-18T04:17:48;-7.40;99.90
5055;DHT22;13829;48.990;8.346;2022-12-18T04:20:16;-7.30;99.90
5055;DHT22;13829;48.990;8.346;2022-12-18T04:22:44;-7.20;99.90
5055;DHT22;13829;48.990;8.346;2022-12-18T04:25:11;-7.20;99.90
5055;DHT22;13829;48.990;8.346;2022-12-18T04:27:38;-7.10;99.90
5055;DHT22;13829;48.990;8.346;2022-12-18T04:30:06;-7.00;99.90
5055;DHT22;13829;48.990;8.346;2022-12-18T04:32:35;-7.00;99.90
5055;DHT22;13829;48.990;8.346;2022-12-18T04:35:03;-6.80;99.90
5055;DHT22;13829;48.990;8.346;2022-12-18T04:37:33;-6.80;99.90
5055;DHT22;13829;48.990;8.346;2022-12-18T04:40:00;-6.70;99.90
5055;DHT22;13829;48.990;8.346;2022-12-18T04:42:27;-6.60;99.90
5055;DHT22;13829;48.990;8.346;2022-12-18T04:44:54;-6.50;99.90
5055;DHT22;13829;48.990;8.346;2022-12-18T04:47:21;-6.50;99.90
5055;DHT22;13829;48.990;8.346;2022-12-18T04:49:49;-6.30;99.90
5055;DHT22;13829;48.990;8.346;2022-12-18T04:52:16;-6.30;99.90
5055;DHT22;13829;48.990;8.346;2022-12-18T04:54:43;-6.20;99.90
5055;DHT22;13829;48.990;8.346;2022-12-18T04:57:10;-6.20;99.90
5055;DHT22;13829;48.990;8.346;2022-12-18T04:59:37;-6.10;99.90
5055;DHT22;13829;48.990;8.346;2022-12-18T05:02:04;-6.20;99.90
5055;DHT22;13829;48.990;8.346;2022-12-18T05:04:31;-6.20;99.90
5055;DHT22;13829;48.990;8.346;2022-12-18T05:06:59;-6.20;99.90
5055;DHT22;13829;48.990;8.346;2022-12-18T05:09:26;-6.20;99.90
5055;DHT22;13829;48.990;8.346;2022-12-18T05:11:53;-6.00;99.90
5055;DHT22;13829;48.990;8.346;2022-12-18T05:14:20;-6.10;99.90
5055;DHT22;13829;48.990;8.346;2022-12-18T05:16:47;-6.10;99.90
5055;DHT22;13829;48.990;8.346;2022-12-18T05:19:14;-6.00;99.90
5055;DHT22;13829;48.990;8.346;2022-12-18T05:21:41;-6.00;99.90
5055;DHT22;13829;48.990;8.346;2022-12-18T05:24:09;-6.00;99.90
5055;DHT22;13829;48.990;8.346;2022-12-18T05:26:36;-6.00;99.90
5055;DHT22;13829;48.990;8.346;2022-12-18T05:29:03;-6.00;99.90
5055;DHT22;13829;48.990;8.346;2022-12-18T05:31:30;-6.10;99.90
5055;DHT22;13829;48.990;8.346;2022-12-18T05:33:57;-5.90;99.90
5055;DHT22;13829;48.990;8.346;2022-12-18T05:36:24;-5.90;99.90
5055;DHT22;13829;48.990;8.346;2022-12-18T05:38:51;-5.70;99.90
5055;DHT22;13829;48.990;8.346;2022-12-18T05:41:20;-5.70;99.90
5055;DHT22;13829;48.990;8.346;2022-12-18T05:43:47;-5.70;99.90
5055;DHT22;13829;48.990;8.346;2022-12-18T05:46:15;-5.70;99.90
5055;DHT22;13829;48.990;8.346;2022-12-18T05:48:44;-5.50;99.90
5055;DHT22;13829;48.990;8.346;2022-12-18T05:51:13;-5.40;99.90
5055;DHT22;13829;48.990;8.346;2022-12-18T05:53:43;-5.30;99.90
5055;DHT22;13829;48.990;8.346;2022-12-18T05:56:12;-5.20;99.90
5055;DHT22;13829;48.990;8.346;2022-12-18T05:58:42;-5.00;99.90
5055;DHT22;13829;48.990;8.346;2022-12-18T06:01:11;-5.10;99.90
5055;DHT22;13829;48.990;8.346;2022-12-18T06:03:39;-5.00;99.90
5055;DHT22;13829;48.990;8.346;2022-12-18T06:06:13;-5.00;99.90
5055;DHT22;13829;48.990;8.346;2022-12-18T06:08:41;-5.00;99.90
5055;DHT22;13829;48.990;8.346;2022-12-18T06:11:08;-4.90;99.90
5055;DHT22;13829;48.990;8.346;2022-12-18T06:13:35;-4.80;99.90
5055;DHT22;13829;48.990;8.346;2022-12-18T06:16:04;-4.70;99.90
5055;DHT22;13829;48.990;8.346;2022-12-18T06:18:32;-4.70;99.90
5055;DHT22;13829;48.990;8.346;2022-12-18T06:20:59;-4.70;99.90
5055;DHT22;13829;48.990;8.346;2022-12-18T06:23:27;-4.70;99.90
5055;DHT22;13829;48.990;8.346;2022-12-18T06:25:55;-4.60;99.90
5055;DHT22;13829;48.990;8.346;2022-12-18T06:28:22;-4.60;99.90
5055;DHT22;13829;48.990;8.346;2022-12-18T06:30:49;-4.40;99.90
5055;DHT22;13829;48.990;8.346;2022-12-18T06:33:17;-4.40;99.90
5055;DHT22;13829;48.990;8.346;2022-12-18T06:35:44;-4.30;99.90
5055;DHT22;13829;48.990;8.346;2022-12-18T06:38:11;-4.30;99.90
5055;DHT22;13829;48.990;8.346;2022-12-18T06:40:38;-4.30;99.90
5055;DHT22;13829;48.990;8.346;2022-12-18T06:43:05;-4.40;99.90
5055;DHT22;13829;48.990;8.346;2022-12-18T06:45:33;-4.40;99.90
5055;DHT22;13829;48.990;8.346;2022-12-18T06:48:00;-4.30;99.90
5055;DHT22;13829;48.990;8.346;2022-12-18T06:50:29;-4.20;99.90
5055;DHT22;13829;48.990;8.346;2022-12-18T06:52:56;-4.20;99.90
5055;DHT22;13829;48.990;8.346;2022-12-18T06:55:22;-4.10;99.90
5055;DHT22;13829;48.990;8.346;2022-12-18T06:57:49;-4.10;99.90
5055;DHT22;13829;48.990;8.346;2022-12-18T07:00:17;-3.90;99.90
5055;DHT22;13829;48.990;8.346;2022-12-18T07:02:44;-3.90;99.90
5055;DHT22;13829;48.990;8.346;2022-12-18T07:05:11;-3.80;99.90
5055;DHT22;13829;48.990;8.346;2022-12-18T07:07:39;-3.70;99.90
5055;DHT22;13829;48.990;8.346;2022-12-18T07:10:06;-3.80;99.90
5055;DHT22;13829;48.990;8.346;2022-12-18T07:12:34;-3.90;99.90
5055;DHT22;13829;48.990;8.346;2022-12-18T07:15:01;-3.90;99.90
5055;DHT22;13829;48.990;8.346;2022-12-18T07:17:28;-3.80;99.90
5055;DHT22;13829;48.990;8.346;2022-12-18T07:19:55;-3.70;99.90
5055;DHT22;13829;48.990;8.346;2022-12-18T07:22:22;-3.70;99.90
5055;DHT22;13829;48.990;8.346;2022-12-18T07:24:52;-3.70;99.90
5055;DHT22;13829;48.990;8.346;2022-12-18T07:27:21;-3.70;99.90
5055;DHT22;13829;48.990;8.346;2022-12-18T07:29:48;-3.70;99.90
5055;DHT22;13829;48.990;8.346;2022-12-18T07:32:15;-3.80;99.90
5055;DHT22;13829;48.990;8.346;2022-12-18T07:34:42;-3.70;99.90
5055;DHT22;13829;48.990;8.346;2022-12-18T07:37:09;-3.50;99.90
5055;DHT22;13829;48.990;8.346;2022-12-18T07:39:36;-3.50;99.90
5055;DHT22;13829;48.990;8.346;2022-12-18T07:42:08;-3.50;99.90
5055;DHT22;13829;48.990;8.346;2022-12-18T07:44:53;-3.60;99.90
5055;DHT22;13829;48.990;8.346;2022-12-18T07:47:19;-3.60;99.90
5055;DHT22;13829;48.990;8.346;2022-12-18T07:49:46;-3.40;99.90
5055;DHT22;13829;48.990;8.346;2022-12-18T07:52:13;-3.20;99.90
5055;DHT22;13829;48.990;8.346;2022-12-18T07:54:40;-3.20;99.90
5055;DHT22;13829;48.990;8.346;2022-12-18T07:57:09;-3.30;99.90
5055;DHT22;13829;48.990;8.346;2022-12-18T07:59:36;-3.30;99.90
5055;DHT22;13829;48.990;8.346;2022-12-18T08:02:03;-3.40;99.90
5055;DHT22;13829;48.990;8.346;2022-12-18T08:04:30;-3.50;99.90
5055;DHT22;13829;48.990;8.346;2022-12-18T08:06:57;-3.40;99.90
5055;DHT22;13829;48.990;8.346;2022-12-18T08:09:24;-3.50;99.90
5055;DHT22;13829;48.990;8.346;2022-12-18T08:11:51;-3.40;99.90
5055;DHT22;13829;48.990;8.346;2022-12-18T08:14:19;-3.40;99.90
5055;DHT22;13829;48.990;8.346;2022-12-18T08:16:46;-3.30;99.90
5055;DHT22;13829;48.990;8.346;2022-12-18T08:19:13;-3.30;99.90
5055;DHT22;13829;48.990;8.346;2022-12-18T08:21:40;-3.30;99.90
5055;DHT22;13829;48.990;8.346;2022-12-18T08:24:08;-3.30;99.90
5055;DHT22;13829;48.990;8.346;2022-12-18T08:26:35;-3.30;99.90
5055;DHT22;13829;48.990;8.346;2022-12-18T08:29:02;-3.30;99.90
5055;DHT22;13829;48.990;8.346;2022-12-18T08:31:31;-3.50;99.90
5055;DHT22;13829;48.990;8.346;2022-12-18T08:33:58;-3.60;99.90
5055;DHT22;13829;48.990;8.346;2022-12-18T08:36:25;-3.50;99.90
5055;DHT22;13829;48.990;8.346;2022-12-18T08:38:53;-3.70;99.90
5055;DHT22;13829;48.990;8.346;2022-12-18T08:41:20;-3.80;99.90
5055;DHT22;13829;48.990;8.346;2022-12-18T08:43:47;-4.00;99.90
5055;DHT22;13829;48.990;8.346;2022-12-18T08:46:35;-4.00;99.90
5055;DHT22;13829;48.990;8.346;2022-12-18T08:49:04;-3.60;99.90
5055;DHT22;13829;48.990;8.346;2022-12-18T08:51:32;-3.40;99.90
5055;DHT22;13829;48.990;8.346;2022-12-18T08:54:00;-3.20;99.90
5055;DHT22;13829;48.990;8.346;2022-12-18T08:56:27;-3.10;99.90
5055;DHT22;13829;48.990;8.346;2022-12-18T08:58:55;-3.10;99.90
5055;DHT22;13829;48.990;8.346;2022-12-18T09:01:23;-3.10;99.90
5055;DHT22;13829;48.990;8.346;2022-12-18T09:03:51;-3.20;99.90
5055;DHT22;13829;48.990;8.346;2022-12-18T09:06:20;-3.20;99.90
5055;DHT22;13829;48.990;8.346;2022-12-18T09:08:49;-3.30;99.90
5055;DHT22;13829;48.990;8.346;2022-12-18T09:11:20;-3.40;99.90
5055;DHT22;13829;48.990;8.346;2022-12-18T09:13:48;-3.50;99.90
5055;DHT22;13829;48.990;8.346;2022-12-18T09:16:16;-3.60;99.90
5055;DHT22;13829;48.990;8.346;2022-12-18T09:18:43;-3.50;99.90
5055;DHT22;13829;48.990;8.346;2022-12-18T09:21:13;-3.50;99.90
5055;DHT22;13829;48.990;8.346;2022-12-18T09:23:42;-3.30;99.90
5055;DHT22;13829;48.990;8.346;2022-12-18T09:26:09;-3.20;99.90
5055;DHT22;13829;48.990;8.346;2022-12-18T09:28:36;-3.30;99.90
5055;DHT22;13829;48.990;8.346;2022-12-18T09:31:05;-3.20;99.90
5055;DHT22;13829;48.990;8.346;2022-12-18T09:33:34;-3.10;99.90
5055;DHT22;13829;48.990;8.346;2022-12-18T09:36:01;-3.20;99.90
5055;DHT22;13829;48.990;8.346;2022-12-18T09:38:31;-2.90;99.90
5055;DHT22;13829;48.990;8.346;2022-12-18T09:41:04;-2.90;99.90
5055;DHT22;13829;48.990;8.346;2022-12-18T09:43:44;-3.00;99.90
5055;DHT22;13829;48.990;8.346;2022-12-18T09:46:17;-3.20;99.90
5055;DHT22;13829;48.990;8.346;2022-12-18T09:48:52;-3.50;99.90
5055;DHT22;13829;48.990;8.346;2022-12-18T09:51:27;-3.50;99.90
5055;DHT22;13829;48.990;8.346;2022-12-18T09:54:02;-3.40;99.90
5055;DHT22;13829;48.990;8.346;2022-12-18T09:56:36;-3.30;99.90
5055;DHT22;13829;48.990;8.346;2022-12-18T09:59:17;-3.20;99.90
5055;DHT22;13829;48.990;8.346;2022-12-18T10:01:47;-3.20;99.90
5055;DHT22;13829;48.990;8.346;2022-12-18T10:04:14;-3.10;99.90
5055;DHT22;13829;48.990;8.346;2022-12-18T10:06:46;-3.00;99.90
5055;DHT22;13829;48.990;8.346;2022-12-18T10:09:27;-3.10;99.90
5055;DHT22;13829;48.990;8.346;2022-12-18T10:12:07;-2.90;99.90
5055;DHT22;13829;48.990;8.346;2022-12-18T10:14:46;-2.70;99.90
5055;DHT22;13829;48.990;8.346;2022-12-18T10:17:23;-2.60;99.90
5055;DHT22;13829;48.990;8.346;2022-12-18T10:20:00;-2.40;99.90
5055;DHT22;13829;48.990;8.346;2022-12-18T10:22:41;-2.30;99.90
5055;DHT22;13829;48.990;8.346;2022-12-18T10:25:22;-2.10;99.90
5055;DHT22;13829;48.990;8.346;2022-12-18T10:27:53;-2.00;99.90
5055;DHT22;13829;48.990;8.346;2022-12-18T10:30:24;-1.90;99.90
5055;DHT22;13829;48.990;8.346;2022-12-18T10:32:52;-1.80;99.90
5055;DHT22;13829;48.990;8.346;2022-12-18T10:35:22;-1.80;99.90
5055;DHT22;13829;48.990;8.346;2022-12-18T10:38:03;-1.90;99.90
5055;DHT22;13829;48.990;8.346;2022-12-18T10:40:48;-1.90;99.90
5055;DHT22;13829;48.990;8.346;2022-12-18T10:43:20;-2.10;99.90
5055;DHT22;13829;48.990;8.346;2022-12-18T10:46:01;-2.10;99.90
5055;DHT22;13829;48.990;8.346;2022-12-18T10:48:47;-1.90;99.90
5055;DHT22;13829;48.990;8.346;2022-12-18T10:51:23;-1.70;99.90
5055;DHT22;13829;48.990;8.346;2022-12-18T10:53:55;-1.50;99.90
5055;DHT22;13829;48.990;8.346;2022-12-18T10:56:28;-1.50;99.90
5055;DHT22;13829;48.990;8.346;2022-12-18T10:58:59;-1.50;99.90
5055;DHT22;13829;48.990;8.346;2022-12-18T11:01:28;-1.50;99.90
5055;DHT22;13829;48.990;8.346;2022-12-18T11:04:17;-1.50;99.90
5055;DHT22;13829;48.990;8.346;2022-12-18T11:06:58;-1.60;99.90
5055;DHT22;13829;48.990;8.346;2022-12-18T11:09:27;-1.60;99.90
5055;DHT22;13829;48.990;8.346;2022-12-18T11:11:59;-1.50;99.90
5055;DHT22;13829;48.990;8.346;2022-12-18T11:14:30;-1.50;99.90
5055;DHT22;13829;48.990;8.346;2022-12-18T11:17:00;-1.60;99.90
5055;DHT22;13829;48.990;8.346;2022-12-18T11:19:33;-1.60;99.90
5055;DHT22;13829;48.990;8.346;2022-12-18T11:22:04;-1.70;99.90
5055;DHT22;13829;48.990;8.346;2022-12-18T11:24:53;-1.80;99.90
5055;DHT22;13829;48.990;8.346;2022-12-18T11:27:24;-1.40;99.90
5055;DHT22;13829;48.990;8.346;2022-12-18T11:29:52;-1.30;99.90
5055;DHT22;13829;48.990;8.346;2022-12-18T11:32:30;-1.20;99.90
5055;DHT22;13829;48.990;8.346;2022-12-18T11:35:14;-1.20;99.90
5055;DHT22;13829;48.990;8.346;2022-12-18T11:37:46;-1.20;99.90
5055;DHT22;13829;48.990;8.346;2022-12-18T11:40:20;-1.40;99.90
5055;DHT22;13829;48.990;8.346;2022-12-18T11:42:59;-1.40;99.90
5055;DHT22;13829;48.990;8.346;2022-12-18T11:45:35;-1.40;99.90
5055;DHT22;13829;48.990;8.346;2022-12-18T11:48:14;-1.40;99.90
5055;DHT22;13829;48.990;8.346;2022-12-18T11:50:48;-1.40;99.90
5055;DHT22;13829;48.990;8.346;2022-12-18T11:53:17;-1.40;99.90
5055;DHT22;13829;48.990;8.346;2022-12-18T11:56:02;-1.40;99.90
5055;DHT22;13829;48.990;8.346;2022-12-18T11:58:53;-1.40;99.90
5055;DHT22;13829;48.990;8.346;2022-12-18T12:01:36;-1.30;99.90
5055;DHT22;13829;48.990;8.346;2022-12-18T12:04:34;-1.60;99.90
5055;DHT22;13829;48.990;8.346;2022-12-18T12:07:27;-1.70;99.90
5055;DHT22;13829;48.990;8.346;2022-12-18T12:10:16;-1.80;99.90
5055;DHT22;13829;48.990;8.346;2022-12-18T12:13:08;-2.00;99.90
5055;DHT22;13829;48.990;8.346;2022-12-18T12:15:57;-2.10;99.90
5055;DHT22;13829;48.990;8.346;2022-12-18T12:18:46;-2.20;99.90
5055;DHT22;13829;48.990;8.346;2022-12-18T12:21:26;-2.10;99.90
5055;DHT22;13829;48.990;8.346;2022-12-18T12:24:09;-2.30;99.90
5055;DHT22;13829;48.990;8.346;2022-12-18T12:26:53;-2.00;99.90
5055;DHT22;13829;48.990;8.346;2022-12-18T12:29:39;-1.90;99.90
5055;DHT22;13829;48.990;8.346;2022-12-18T12:32:25;-1.70;99.90
5055;DHT22;13829;48.990;8.346;2022-12-18T12:35:11;-1.60;99.90
5055;DHT22;13829;48.990;8.346;2022-12-18T12:37:52;-1.50;99.90
5055;DHT22;13829;48.990;8.346;2022-12-18T12:40:35;-1.60;99.90
5055;DHT22;13829;48.990;8.346;2022-12-18T12:43:19;-1.60;99.90
5055;DHT22;13829;48.990;8.346;2022-12-18T12:45:52;-1.90;99.90
5055;DHT22;13829;48.990;8.346;2022-12-18T12:48:32;-1.80;99.90
5055;DHT22;13829;48.990;8.346;2022-12-18T12:51:12;-1.50;99.90
5055;DHT22;13829;48.990;8.346;2022-12-18T12:53:43;-1.50;99.90
5055;DHT22;13829;48.990;8.346;2022-12-18T12:56:13;-1.50;99.90
5055;DHT22;13829;48.990;8.346;2022-12-18T12:58:50;-1.60;99.90
5055;DHT22;13829;48.990;8.346;2022-12-18T13:01:28;-1.80;99.90
5055;DHT22;13829;48.990;8.346;2022-12-18T13:04:12;-2.10;99.90
5055;DHT22;13829;48.990;8.346;2022-12-18T13:06:53;-2.00;99.90
5055;DHT22;13829;48.990;8.346;2022-12-18T13:09:30;-2.00;99.90
5055;DHT22;13829;48.990;8.346;2022-12-18T13:12:08;-2.10;99.90
5055;DHT22;13829;48.990;8.346;2022-12-18T13:15:12;-2.00;99.90
5055;DHT22;13829;48.990;8.346;2022-12-18T13:17:46;-2.00;99.90
5055;DHT22;13829;48.990;8.346;2022-12-18T13:20:15;-2.00;99.90
5055;DHT22;13829;48.990;8.346;2022-12-18T13:22:44;-1.90;99.90
5055;DHT22;13829;48.990;8.346;2022-12-18T13:25:34;-2.00;99.90
5055;DHT22;13829;48.990;8.346;2022-12-18T13:28:08;-2.00;99.90
5055;DHT22;13829;48.990;8.346;2022-12-18T13:30:50;-2.10;99.90
5055;DHT22;13829;48.990;8.346;2022-12-18T13:33:39;-2.20;99.90
5055;DHT22;13829;48.990;8.346;2022-12-18T13:36:25;-2.10;99.90
5055;DHT22;13829;48.990;8.346;2022-12-18T13:45:45;-1.70;99.90
5055;DHT22;13829;48.990;8.346;2022-12-18T13:48:18;-1.80;99.90
5055;DHT22;13829;48.990;8.346;2022-12-18T13:50:55;-1.70;99.90
5055;DHT22;13829;48.990;8.346;2022-12-18T13:53:28;-1.70;99.90
5055;DHT22;13829;48.990;8.346;2022-12-18T13:55:59;-1.60;99.90
5055;DHT22;13829;48.990;8.346;2022-12-18T13:58:26;-1.40;99.90
5055;DHT22;13829;48.990;8.346;2022-12-18T14:00:53;-1.30;99.90
5055;DHT22;13829;48.990;8.346;2022-12-18T14:03:22;-1.20;99.90
5055;DHT22;13829;48.990;8.346;2022-12-18T14:05:58;-1.20;99.90
5055;DHT22;13829;48.990;8.346;2022-12-18T14:08:34;-1.10;99.90
5055;DHT22;13829;48.990;8.346;2022-12-18T14:11:05;-1.20;99.90
5055;DHT22;13829;48.990;8.346;2022-12-18T14:13:37;-1.30;99.90
5055;DHT22;13829;48.990;8.346;2022-12-18T14:16:11;-1.40;99.90
5055;DHT22;13829;48.990;8.346;2022-12-18T14:18:44;-1.40;99.90
5055;DHT22;13829;48.990;8.346;2022-12-18T14:21:19;-1.60;99.90
5055;DHT22;13829;48.990;8.346;2022-12-18T14:24:03;-1.70;99.90
5055;DHT22;13829;48.990;8.346;2022-12-18T14:26:32;-1.50;99.90
5055;DHT22;13829;48.990;8.346;2022-12-18T14:29:01;-1.50;99.90
5055;DHT22;13829;48.990;8.346;2022-12-18T14:31:44;-1.40;99.90
5055;DHT22;13829;48.990;8.346;2022-12-18T14:34:15;-1.30;99.90
5055;DHT22;13829;48.990;8.346;2022-12-18T14:36:51;-1.50;99.90
5055;DHT22;13829;48.990;8.346;2022-12-18T14:39:22;-1.50;99.90
5055;DHT22;13829;48.990;8.346;2022-12-18T14:41:51;-1.60;99.90
5055;DHT22;13829;48.990;8.346;2022-12-18T14:44:18;-1.50;99.90
5055;DHT22;13829;48.990;8.346;2022-12-18T14:46:47;-1.60;99.90
5055;DHT22;13829;48.990;8.346;2022-12-18T14:49:21;-1.60;99.90
5055;DHT22;13829;48.990;8.346;2022-12-18T14:51:53;-1.80;99.90
5055;DHT22;13829;48.990;8.346;2022-12-18T14:54:24;-1.90;99.90
5055;DHT22;13829;48.990;8.346;2022-12-18T14:56:56;-1.80;99.90
5055;DHT22;13829;48.990;8.346;2022-12-18T14:59:28;-1.80;99.90
5055;DHT22;13829;48.990;8.346;2022-12-18T15:02:03;-1.90;99.90
5055;DHT22;13829;48.990;8.346;2022-12-18T15:04:38;-1.90;99.90
5055;DHT22;13829;48.990;8.346;2022-12-18T15:07:13;-2.00;99.90
5055;DHT22;13829;48.990;8.346;2022-12-18T15:10:02;-2.10;99.90
5055;DHT22;13829;48.990;8.346;2022-12-18T15:12:38;-2.20;99.90
5055;DHT22;13829;48.990;8.346;2022-12-18T15:18:15;-2.10;99.90
5055;DHT22;13829;48.990;8.346;2022-12-18T15:20:47;-2.10;99.90
5055;DHT22;13829;48.990;8.346;2022-12-18T15:23:18;-2.00;99.90
5055;DHT22;13829;48.990;8.346;2022-12-18T15:25:56;-2.10;99.90
5055;DHT22;13829;48.990;8.346;2022-12-18T15:28:27;-2.10;99.90
5055;DHT22;13829;48.990;8.346;2022-12-18T15:31:21;-2.10;99.90
5055;DHT22;13829;48.990;8.346;2022-12-18T15:34:05;-2.20;99.90
5055;DHT22;13829;48.990;8.346;2022-12-18T15:36:38;-2.20;99.90
5055;DHT22;13829;48.990;8.346;2022-12-18T15:39:05;-2.20;99.90
5055;DHT22;13829;48.990;8.346;2022-12-18T15:41:35;-2.20;99.90
5055;DHT22;13829;48.990;8.346;2022-12-18T15:44:15;-2.30;99.90
5055;DHT22;13829;48.990;8.346;2022-12-18T15:46:47;-2.40;99.90
5055;DHT22;13829;48.990;8.346;2022-12-18T15:49:14;-2.30;99.90
5055;DHT22;13829;48.990;8.346;2022-12-18T15:51:41;-2.40;99.90
5055;DHT22;13829;48.990;8.346;2022-12-18T15:54:11;-2.30;99.90
5055;DHT22;13829;48.990;8.346;2022-12-18T15:56:42;-2.20;99.90
5055;DHT22;13829;48.990;8.346;2022-12-18T15:59:27;-2.20;99.90
5055;DHT22;13829;48.990;8.346;2022-12-18T16:01:54;-2.20;99.90
5055;DHT22;13829;48.990;8.346;2022-12-18T16:04:22;-2.30;99.90
5055;DHT22;13829;48.990;8.346;2022-12-18T16:06:50;-2.20;99.90
5055;DHT22;13829;48.990;8.346;2022-12-18T16:09:17;-2.20;99.90
5055;DHT22;13829;48.990;8.346;2022-12-18T16:11:46;-2.10;99.90
5055;DHT22;13829;48.990;8.346;2022-12-18T16:14:17;-2.00;99.90
5055;DHT22;13829;48.990;8.346;2022-12-18T16:16:47;-1.90;99.90
5055;DHT22;13829;48.990;8.346;2022-12-18T16:19:16;-1.90;99.90
5055;DHT22;13829;48.990;8.346;2022-12-18T16:21:43;-1.90;99.90
5055;DHT22;13829;48.990;8.346;2022-12-18T16:24:14;-1.90;99.90
5055;DHT22;13829;48.990;8.346;2022-12-18T16:26:42;-1.90;99.90